ダッカ の空港の天気 - METARとTAF

シャージャラル国際空港(ダッカ) ( VGHS / DAC ) - バングラデシュ ダッカ
飛行場実況気象(Metar)
観測時間01/29 14:00 BDT (01/29 08:00 UTC)
風向・風速北西 5m/s
視程3500m
天気現象煙霧
なし
気温21℃
湿度46%
気圧1013hPa
METARVGHS 290800Z 31010KT 3500 HZ NSC 21/09 Q1013 NOSIG
過去の天気等 Google飛行場航空写真 Wunderground天気予報

過去48時間のMETAR

飛行場予報(TAF)
発表時間: 1/29 11:00 BDT (1/29 05:00 UTC)
予報対象時間: 29日12時 BDT ~ 30日18時 BDT
風向・風速西北西 4m/s
視程3500m
天気現象煙霧
なし
30日4時 BDT ~ 30日6時 BDT に徐々に
風向・風速西 2m/s
視程3000m
天気現象煙霧
30日6時 BDT ~ 30日8時 BDT に徐々に
風向・風速不定 2m/s
視程2000m
天気現象もや
30日6時 BDT ~ 30日9時 BDT に一時的に
視程1200m
天気現象もや
30日12時 BDT ~ 30日14時 BDT に徐々に
風向・風速西北西 4m/s
視程3500m
天気現象煙霧
TAF VGHS 290500Z 2906/3012 30008KT 3500 HZ NSC
BECMG 2922/2924 27004KT 3000 HZ
BECMG 3000/3002 VRB03KT 2000 BR
TEMPO 3000/3003 1200 BR
BECMG 3006/3008 29008KT 3500 HZ